Hlavní strana
METAR-TAF:

METAR-TAF

Letiště :

Klagenfurt, Rakousko

zeměpisná šířka: 46-39N, zeměpisná délka: 014-20E, výška: 448 m

Aktuální stav počasí

Zpráva byla vytvořena před 11 minutami, v 21:50 UTC
Západní vítr 4 kt, proměnlivý mezi jihozápadním a západoseverozápadním
Teplota 5°C
Vlhkost vzduchu 75%
Tlak 1025 hPa
Viditelnost 10 km a více
Skoro jasno ve výšce 9000 ft
Oblačno až skoro zataženo ve výšce 17000 ft

METAR: LOWK 212150Z 28004KT 230V300 9999 FEW090 BKN170 05/01 Q1025 NOSIG

Čas: 23:01 (22:01 UTC)

Předpověď počasí

Zpráva byla vytvořena před 4 hodinami a 46 minutami, v 17:15 UTC
Předpověď platná od 21 v 18 UTC do 22 v 18 UTC
vítr z různých směrů 2 kt
Viditelnost 10 km a více
Skoro jasno ve výšce 8000 ft
Polojasno ve výšce 12000 ft
Oblačno až skoro zataženo ve výšce 22000 ft
Dočasný
od 22 v 11 UTC do 22 v 17 UTC
Severní vítr 8 kt s nárazy do 18 kt

TAF: LOWK 211715Z 2118/2218 VRB02KT 9999 FEW080 SCT120 BKN220 TX13/2214Z TN02/2206Z TEMPO 2211/2217 01008G18KT

Stav a předpovědi počasí z více než 4 000 letišť (zprávy METAR a TAF).

Červené a žluté tečky na mapě představují dostupné meteorologické stanice.

Když kurzor umístíte na tečku, zobrazí se název stanice.

Pak kliknutím zobrazíte stav a předpověď počasí.

Chcete-li změnit mapu, kliknutím na zelené tlačítko se znaménkem +mapu přiblížíte, kliknutím na zelené tlačítko se znaménkem – mapu oddálíte a kliknutím na zelené šipky přejdete na sousední mapy.


METAR-TAF: